»·PEaware :: N7234J KTOA-KVNY

N7234J :: KTOA-KVNY

FLIGHT INFORMATION

Flight Status: Arrived
Operator: Privately registered:
United States
More flights under this callsign
Pilot: Clement C. (17305)
Aircraft: PIPER PA-28 CHEROKEE ARCHER
(P28A)
More flights by this aircraft type
Origin: KTOA Zamperini
United States
Destination: KVNY Van Nuys
United States
More flights between these airports :: More routes between these airports
Route: +KTOA KVNY
File this flight plan on PilotEdge
Remarks: CAT 10 RATING > LEG 1
Altitude:
(Current/Filed)
2,300ft
Speed:
(Current/Filed)
150kts
Departed: 09-Jan-18 02:05 PM
Arrived: 09-Jan-18 02:46 PM
Distance/Time
Traveled:
25nm/0:41
Distance/Time
To Go:
Arrived

Flight Plot

Page will automatically refresh every two minutes.

Flight plan parsing failed; only flown route is shown


Map Options




Map Legend


Flown Route
Filed Route
Departure Airport
Arrival Airport
Navaid (VOR, NDB)
Fix

Horizontal Profiles

Position Reports

Time Latitude Longitude Heading Altitude Ground
Speed
09-Jan-18 13:58 33.803347 -118.344052 39 100ft 0kts
09-Jan-18 13:59 33.803347 -118.344052 39 100ft 0kts
09-Jan-18 14:00 33.803347 -118.344052 39 100ft 0kts
09-Jan-18 14:01 33.803347 -118.344052 39 100ft 0kts
09-Jan-18 14:02 33.802822 -118.342414 62 100ft 19kts
09-Jan-18 14:03 33.801952 -118.340432 128 100ft 17kts
09-Jan-18 14:04 33.799541 -118.336805 127 102ft 26kts
09-Jan-18 14:05 33.798676 -118.333694 40 100ft 25kts
09-Jan-18 14:06 33.799154 -118.333238 40 98ft 0kts
09-Jan-18 14:07 33.799154 -118.333238 40 98ft 0kts
09-Jan-18 14:08 33.799154 -118.333238 40 98ft 0kts
09-Jan-18 14:09 33.799154 -118.333238 40 98ft 0kts
09-Jan-18 14:10 33.799726 -118.333101 309 97ft 19kts
09-Jan-18 14:11 33.806103 -118.344694 273 266ft 89kts
09-Jan-18 14:12 33.807027 -118.362923 265 575ft 95kts
09-Jan-18 14:13 33.807498 -118.382452 260 905ft 84kts
09-Jan-18 14:14 33.810457 -118.401142 264 976ft 99kts
09-Jan-18 14:15 33.815231 -118.421260 320 973ft 118kts
09-Jan-18 14:16 33.833906 -118.419463 24 981ft 116kts
09-Jan-18 14:17 33.849304 -118.411751 25 979ft 107kts
09-Jan-18 14:18 33.863055 -118.404833 26 989ft 101kts
09-Jan-18 14:19 33.875502 -118.398599 26 988ft 103kts
09-Jan-18 14:20 33.890965 -118.390812 25 987ft 100kts
09-Jan-18 14:21 33.898821 -118.381161 143 1037ft 76kts
09-Jan-18 14:22 33.898442 -118.388472 357 996ft 95kts
09-Jan-18 14:23 33.901589 -118.379197 160 934ft 86kts
09-Jan-18 14:24 33.903118 -118.384036 37 1295ft 84kts
09-Jan-18 14:25 33.901193 -118.382060 304 1764ft 85kts
09-Jan-18 14:26 33.902035 -118.381363 262 2216ft 79kts
09-Jan-18 14:27 33.910502 -118.392850 347 2265ft 117kts
09-Jan-18 14:28 33.925177 -118.388488 25 2240ft 117kts
09-Jan-18 14:29 33.938727 -118.381800 18 2241ft 118kts
09-Jan-18 14:30 33.951503 -118.388287 298 2237ft 118kts
09-Jan-18 14:31 33.952607 -118.405666 283 2234ft 116kts
09-Jan-18 14:32 33.965305 -118.414852 8 2262ft 116kts
09-Jan-18 14:33 33.981502 -118.414913 353 2237ft 113kts
09-Jan-18 14:34 33.997050 -118.418485 347 2237ft 108kts
09-Jan-18 14:35 34.013539 -118.423551 344 2239ft 105kts
09-Jan-18 14:36 34.029848 -118.428969 344 2239ft 104kts
09-Jan-18 14:37 34.045925 -118.434387 343 2248ft 105kts
09-Jan-18 14:38 34.062528 -118.440000 343 2243ft 105kts
09-Jan-18 14:39 34.077891 -118.445202 343 2251ft 104kts
09-Jan-18 14:40 34.094199 -118.450726 343 2239ft 106kts
09-Jan-18 14:41 34.109126 -118.455782 343 2236ft 104kts
09-Jan-18 14:42 34.123843 -118.460774 343 2241ft 103kts
09-Jan-18 14:43 34.140702 -118.466484 344 1940ft 116kts
09-Jan-18 14:44 34.155821 -118.471607 344 1468ft 119kts
09-Jan-18 14:45 34.170803 -118.476696 343 1145ft 97kts
09-Jan-18 14:46 34.184098 -118.481146 348 1175ft 98kts
09-Jan-18 14:47 34.197214 -118.483053 356 1094ft 93kts
09-Jan-18 14:48 34.211428 -118.482468 1 1137ft 81kts
09-Jan-18 14:49 34.225122 -118.487450 335 1227ft 82kts
09-Jan-18 14:50 34.223147 -118.497715 121 1306ft 83kts
09-Jan-18 14:51 34.212204 -118.490668 167 808ft 89kts
09-Jan-18 14:52 34.201927 -118.489575 168 757ft 39kts
09-Jan-18 14:53 34.201211 -118.489893 255 756ft 0kts
09-Jan-18 14:54 34.201211 -118.489893 255 756ft 0kts
09-Jan-18 14:55 34.201211 -118.489893 255 756ft 0kts
09-Jan-18 14:56 34.201183 -118.490061 265 756ft 8kts
09-Jan-18 14:57 34.203301 -118.491111 317 760ft 7kts
09-Jan-18 14:58 34.203782 -118.491468 344 761ft 1kts
09-Jan-18 14:59 34.203917 -118.491397 84 762ft 0kts
09-Jan-18 15:00 34.203917 -118.491397 84 762ft 0kts
09-Jan-18 15:01 34.203917 -118.491397 84 762ft 0kts
09-Jan-18 15:02 34.203917 -118.491397 84 762ft 0kts
09-Jan-18 15:03 34.212724 -118.490720 171 813ft 91kts
09-Jan-18 15:04 34.203917 -118.491397 84 762ft 0kts
09-Jan-18 15:05 34.203917 -118.491397 84 762ft 0kts
09-Jan-18 15:06 34.203917 -118.491397 84 762ft 0kts
09-Jan-18 15:07 34.203917 -118.491397 84 762ft 0kts

Navigation Log

Ident Type
Flight plan parsing failed, navigation log unavailable